createdAt,value
2019-03-31T17:27:08.063Z,1014.60
2019-03-31T17:28:10.195Z,1014.61
2019-03-31T17:29:08.001Z,1014.60
2019-03-31T17:30:07.989Z,1014.59
2019-03-31T17:31:07.976Z,1014.58
2019-03-31T17:32:07.993Z,1014.60
2019-03-31T17:33:07.977Z,1014.62
2019-03-31T17:34:07.966Z,1014.61
2019-03-31T17:35:07.984Z,1014.59
2019-03-31T17:36:07.924Z,1014.61
2019-03-31T17:37:07.911Z,1014.61
2019-03-31T17:38:07.933Z,1014.62
2019-03-31T17:39:07.904Z,1014.58
2019-03-31T17:40:16.260Z,1014.59
2019-03-31T17:41:07.875Z,1014.57
2019-03-31T17:42:07.863Z,1014.62
2019-03-31T17:43:07.891Z,1014.59
2019-03-31T17:44:07.833Z,1014.62
2019-03-31T17:45:07.823Z,1014.59
2019-03-31T17:46:07.818Z,1014.58
2019-03-31T17:47:07.814Z,1014.61
2019-03-31T17:48:07.879Z,1014.60
2019-03-31T17:49:07.808Z,1014.63
2019-03-31T17:50:07.772Z,1014.61
2019-03-31T17:51:07.798Z,1014.64
2019-03-31T17:52:07.750Z,1014.62
2019-03-31T17:53:07.743Z,1014.67
2019-03-31T17:54:07.748Z,1014.70
2019-03-31T17:55:07.719Z,1014.74
2019-03-31T17:56:07.705Z,1014.69
2019-03-31T17:57:07.690Z,1014.72
2019-03-31T17:58:07.689Z,1014.69
2019-03-31T17:59:09.014Z,1014.69
2019-03-31T18:00:07.662Z,1014.66
2019-03-31T18:01:07.663Z,1014.72
2019-03-31T18:02:07.698Z,1014.68
2019-03-31T18:03:07.628Z,1014.68
2019-03-31T18:04:07.638Z,1014.66
2019-03-31T18:05:07.605Z,1014.70
2019-03-31T18:06:07.597Z,1014.65
2019-03-31T18:07:07.607Z,1014.73
2019-03-31T18:08:07.570Z,1014.73
2019-03-31T18:09:07.577Z,1014.77
2019-03-31T18:10:20.098Z,1014.74
2019-03-31T18:11:07.578Z,1014.72
2019-03-31T18:12:07.582Z,1014.72
2019-03-31T18:13:07.600Z,1014.75
2019-03-31T18:14:07.525Z,1014.77
2019-03-31T18:15:07.504Z,1014.76
2019-03-31T18:16:17.294Z,1014.77
2019-03-31T18:17:59.617Z,1014.84
2019-03-31T18:18:59.614Z,1014.80
2019-03-31T18:19:59.581Z,1014.78
2019-03-31T18:20:59.571Z,1014.80
2019-03-31T18:21:59.558Z,1014.87
2019-03-31T18:22:59.553Z,1014.86
2019-03-31T18:23:59.599Z,1014.89
2019-03-31T18:24:59.536Z,1014.91
2019-03-31T18:25:59.523Z,1014.96
2019-03-31T18:26:59.526Z,1014.97
2019-03-31T18:27:59.491Z,1015.00
2019-03-31T18:28:59.530Z,1014.99
2019-03-31T18:29:59.512Z,1015.03
2019-03-31T18:30:59.472Z,1015.06
2019-03-31T18:31:59.470Z,1015.05
2019-03-31T18:32:59.437Z,1015.03
2019-03-31T18:33:59.452Z,1015.03
2019-03-31T18:34:59.460Z,1015.06
2019-03-31T18:35:59.424Z,1015.09
2019-03-31T18:36:59.398Z,1015.12
2019-03-31T18:37:59.383Z,1015.06
2019-03-31T18:38:59.406Z,1015.12
2019-03-31T18:39:59.386Z,1015.13
2019-03-31T18:40:59.374Z,1015.13
2019-03-31T18:41:59.389Z,1015.14
2019-03-31T18:42:59.337Z,1015.12
2019-03-31T18:43:59.345Z,1015.16
2019-03-31T18:44:59.308Z,1015.16
2019-03-31T18:45:59.305Z,1015.16
2019-03-31T18:46:59.284Z,1015.20
2019-03-31T18:48:01.166Z,1015.25
2019-03-31T18:48:59.282Z,1015.21
2019-03-31T18:49:59.250Z,1015.24
2019-03-31T18:50:59.239Z,1015.28
2019-03-31T18:51:59.242Z,1015.29
2019-03-31T18:52:59.232Z,1015.37
2019-03-31T18:53:59.233Z,1015.33
2019-03-31T18:54:59.201Z,1015.35
2019-03-31T18:55:59.289Z,1015.36
2019-03-31T18:56:59.181Z,1015.37
2019-03-31T18:57:59.202Z,1015.39
2019-03-31T18:58:59.213Z,1015.38
2019-03-31T18:59:59.164Z,1015.38
2019-03-31T19:00:59.135Z,1015.40
2019-03-31T19:01:59.132Z,1015.38
2019-03-31T19:02:59.124Z,1015.40
2019-03-31T19:03:59.149Z,1015.43
2019-03-31T19:04:59.103Z,1015.41
2019-03-31T19:05:59.082Z,1015.38
2019-03-31T19:06:59.117Z,1015.38
2019-03-31T19:07:59.299Z,1015.37
2019-03-31T19:08:59.134Z,1015.40
2019-03-31T19:09:59.047Z,1015.35
2019-03-31T19:10:59.017Z,1015.40
2019-03-31T19:11:59.038Z,1015.37
2019-03-31T19:12:58.999Z,1015.41
2019-03-31T19:13:59.046Z,1015.43
2019-03-31T19:14:58.973Z,1015.44
2019-03-31T19:15:58.980Z,1015.53
2019-03-31T19:16:58.996Z,1015.45
2019-03-31T19:17:59.106Z,1015.50
2019-03-31T19:18:58.957Z,1015.47
2019-03-31T19:19:58.957Z,1015.52
2019-03-31T19:21:10.477Z,1015.55
2019-03-31T19:21:59.041Z,1015.50
2019-03-31T19:22:58.892Z,1015.55
2019-03-31T19:23:58.964Z,1015.50
2019-03-31T19:24:58.906Z,1015.49
2019-03-31T19:25:58.850Z,1015.54
2019-03-31T19:26:58.848Z,1015.57
2019-03-31T19:27:58.894Z,1015.58
2019-03-31T19:28:58.937Z,1015.57
2019-03-31T19:29:58.825Z,1015.59
2019-03-31T19:30:58.799Z,1015.60
2019-03-31T19:31:58.818Z,1015.57
2019-03-31T19:32:58.834Z,1015.63
2019-03-31T19:33:58.764Z,1015.65
2019-03-31T19:34:58.803Z,1015.64
2019-03-31T19:36:07.799Z,1015.66
2019-03-31T19:36:58.758Z,1015.62
2019-03-31T19:37:58.723Z,1015.61
2019-03-31T19:38:58.719Z,1015.65
2019-03-31T19:39:58.715Z,1015.70
2019-03-31T19:41:04.543Z,1015.70
2019-03-31T19:41:58.701Z,1015.66
2019-03-31T19:42:58.666Z,1015.75
2019-03-31T19:43:58.670Z,1015.70
2019-03-31T19:44:58.663Z,1015.74
2019-03-31T19:45:58.658Z,1015.76
2019-03-31T19:46:58.640Z,1015.77
2019-03-31T19:47:58.628Z,1015.83
2019-03-31T19:48:58.597Z,1015.81
2019-03-31T19:49:58.605Z,1015.88
2019-03-31T19:51:07.885Z,1015.85
2019-03-31T19:51:58.595Z,1015.86
2019-03-31T19:53:07.466Z,1015.87
2019-03-31T19:53:58.542Z,1015.86
2019-03-31T19:54:58.556Z,1015.89
2019-03-31T19:56:07.380Z,1015.86
2019-03-31T19:56:58.515Z,1015.87
2019-03-31T19:57:58.529Z,1015.90
2019-03-31T19:58:58.504Z,1015.86
2019-03-31T19:59:58.496Z,1015.87
2019-03-31T20:00:58.464Z,1015.95
2019-03-31T20:01:58.479Z,1015.89
2019-03-31T20:02:58.468Z,1015.95
2019-03-31T20:03:58.436Z,1015.90
2019-03-31T20:04:58.528Z,1015.95
2019-03-31T20:05:58.430Z,1015.98
2019-03-31T20:06:58.495Z,1015.97
2019-03-31T20:07:58.391Z,1016.04
2019-03-31T20:08:58.377Z,1016.02
2019-03-31T20:09:58.416Z,1016.00
2019-03-31T20:10:58.355Z,1016.06
2019-03-31T20:11:58.382Z,1016.02
2019-03-31T20:12:58.347Z,1016.02
2019-03-31T20:13:58.320Z,1016.01
2019-03-31T20:14:58.370Z,1016.04
2019-03-31T20:15:58.299Z,1016.03
2019-03-31T20:16:58.289Z,1016.07
2019-03-31T20:17:58.310Z,1016.09
2019-03-31T20:18:58.315Z,1016.09
2019-03-31T20:20:07.783Z,1016.10
2019-03-31T20:20:58.241Z,1016.13
2019-03-31T20:21:58.243Z,1016.10
2019-03-31T20:22:58.220Z,1016.12
2019-03-31T20:23:58.218Z,1016.10
2019-03-31T20:24:58.258Z,1016.11
2019-03-31T20:25:58.305Z,1016.11
2019-03-31T20:26:58.257Z,1016.10
2019-03-31T20:27:59.700Z,1016.13
2019-03-31T20:28:58.206Z,1016.14
2019-03-31T20:29:58.278Z,1016.12
2019-03-31T20:30:58.193Z,1016.12
2019-03-31T20:31:58.121Z,1016.14
2019-03-31T20:32:58.200Z,1016.13
2019-03-31T20:33:58.665Z,1016.14
2019-03-31T20:34:58.791Z,1016.08
2019-03-31T20:35:58.240Z,1016.11
2019-03-31T20:36:58.322Z,1016.12
2019-03-31T20:37:58.277Z,1016.10
2019-03-31T20:38:58.722Z,1016.06
2019-03-31T20:39:58.236Z,1016.11
2019-03-31T20:40:58.749Z,1016.09
2019-03-31T20:41:58.079Z,1016.09
2019-03-31T20:42:58.174Z,1016.08
2019-03-31T20:43:58.047Z,1016.11
2019-03-31T20:44:58.005Z,1016.10
2019-03-31T20:45:58.027Z,1016.15
2019-03-31T20:47:06.207Z,1016.09
2019-03-31T20:47:57.937Z,1016.13
2019-03-31T20:48:57.932Z,1016.10
2019-03-31T20:49:57.944Z,1016.02
2019-03-31T20:50:57.908Z,1016.10
2019-03-31T20:51:57.896Z,1016.02
2019-03-31T20:52:57.905Z,1016.01
2019-03-31T20:53:57.879Z,1016.01
2019-03-31T20:54:57.881Z,1016.02
2019-03-31T20:55:57.882Z,1016.01
2019-03-31T20:56:57.895Z,1016.02
2019-03-31T20:57:57.849Z,1016.01
2019-03-31T20:58:57.817Z,1016.00
2019-03-31T20:59:57.830Z,1016.04
2019-03-31T21:01:49.430Z,1016.01
2019-03-31T21:02:49.412Z,1015.95
2019-03-31T21:03:49.407Z,1016.02
2019-03-31T21:04:49.394Z,1015.98
2019-03-31T21:05:49.397Z,1016.03
2019-03-31T21:06:49.369Z,1016.00
2019-03-31T21:07:49.364Z,1016.01
2019-03-31T21:08:49.357Z,1016.02
2019-03-31T21:09:49.332Z,1016.03
2019-03-31T21:10:49.346Z,1016.03
2019-03-31T21:11:49.362Z,1016.04
2019-03-31T21:12:49.301Z,1016.06
2019-03-31T21:13:49.287Z,1016.03
2019-03-31T21:14:58.603Z,1016.10
2019-03-31T21:15:49.264Z,1016.09
2019-03-31T21:16:49.260Z,1016.07
2019-03-31T21:17:49.242Z,1016.06
2019-03-31T21:18:49.236Z,1016.05
2019-03-31T21:19:49.224Z,1016.04
2019-03-31T21:20:49.247Z,1016.03
2019-03-31T21:21:49.203Z,1016.08
2019-03-31T21:22:49.186Z,1016.07
2019-03-31T21:23:49.172Z,1016.12
2019-03-31T21:24:49.183Z,1016.12
2019-03-31T21:25:49.374Z,1016.13
2019-03-31T21:26:49.139Z,1016.16
2019-03-31T21:27:49.127Z,1016.17
2019-03-31T21:28:49.564Z,1016.15
2019-03-31T21:29:49.111Z,1016.12
2019-03-31T21:30:49.132Z,1016.14
2019-03-31T21:31:49.084Z,1016.12
2019-03-31T21:32:49.075Z,1016.17
2019-03-31T21:33:49.060Z,1016.17
2019-03-31T21:34:49.049Z,1016.15
2019-03-31T21:35:49.056Z,1016.16
2019-03-31T21:36:49.027Z,1016.14
2019-03-31T21:37:49.036Z,1016.25
2019-03-31T21:38:49.006Z,1016.22
2019-03-31T21:39:49.003Z,1016.19
2019-03-31T21:40:49.005Z,1016.21
2019-03-31T21:41:48.969Z,1016.19
2019-03-31T21:42:48.957Z,1016.20
2019-03-31T21:43:57.298Z,1016.22
2019-03-31T21:44:48.942Z,1016.18
2019-03-31T21:45:49.388Z,1016.24
2019-03-31T21:46:48.916Z,1016.24
2019-03-31T21:47:48.908Z,1016.27
2019-03-31T21:48:48.899Z,1016.25
2019-03-31T21:49:48.892Z,1016.28
2019-03-31T21:50:49.151Z,1016.28
2019-03-31T21:51:57.232Z,1016.25
2019-03-31T21:52:48.846Z,1016.22
2019-03-31T21:53:48.833Z,1016.18
2019-03-31T21:54:48.824Z,1016.25
2019-03-31T21:55:48.890Z,1016.25
2019-03-31T21:56:48.837Z,1016.24
2019-03-31T21:57:48.814Z,1016.26
2019-03-31T21:58:48.780Z,1016.30
2019-03-31T21:59:48.767Z,1016.27
2019-03-31T22:00:48.832Z,1016.24
2019-03-31T22:01:48.774Z,1016.28
2019-03-31T22:02:48.732Z,1016.25
2019-03-31T22:03:48.730Z,1016.23
2019-03-31T22:04:48.714Z,1016.22
2019-03-31T22:05:48.734Z,1016.23
2019-03-31T22:06:48.702Z,1016.20
2019-03-31T22:07:48.680Z,1016.21
2019-03-31T22:08:48.667Z,1016.20
2019-03-31T22:09:48.655Z,1016.25
2019-03-31T22:10:48.734Z,1016.22
2019-03-31T22:11:48.639Z,1016.24
2019-03-31T22:12:48.625Z,1016.22
2019-03-31T22:13:48.612Z,1016.21
2019-03-31T22:14:48.607Z,1016.20
2019-03-31T22:15:48.614Z,1016.22
2019-03-31T22:16:48.576Z,1016.19
2019-03-31T22:17:48.568Z,1016.20
2019-03-31T22:18:48.555Z,1016.25
2019-03-31T22:19:48.545Z,1016.25
2019-03-31T22:20:48.561Z,1016.26
2019-03-31T22:21:48.527Z,1016.26
2019-03-31T22:22:48.530Z,1016.23
2019-03-31T22:23:57.710Z,1016.23
2019-03-31T22:24:48.489Z,1016.25
2019-03-31T22:25:48.498Z,1016.21
2019-03-31T22:26:48.475Z,1016.24
2019-03-31T22:27:48.496Z,1016.21
2019-03-31T22:28:48.570Z,1016.21
2019-03-31T22:29:48.435Z,1016.22
2019-03-31T22:30:48.449Z,1016.19
2019-03-31T22:31:48.409Z,1016.18
2019-03-31T22:32:57.237Z,1016.21
2019-03-31T22:33:48.389Z,1016.24
2019-03-31T22:34:56.800Z,1016.23
2019-03-31T22:35:48.390Z,1016.22
2019-03-31T22:36:48.356Z,1016.20
2019-03-31T22:37:48.343Z,1016.23
2019-03-31T22:38:48.352Z,1016.22
2019-03-31T22:39:48.320Z,1016.22
2019-03-31T22:40:48.334Z,1016.22
2019-03-31T22:41:48.299Z,1016.20
2019-03-31T22:42:48.286Z,1016.18
2019-03-31T22:43:48.293Z,1016.21
2019-03-31T22:44:56.511Z,1016.20
2019-03-31T22:45:48.277Z,1016.22
2019-03-31T22:46:54.436Z,1016.19
2019-03-31T22:47:48.232Z,1016.17
2019-03-31T22:48:48.222Z,1016.19
2019-03-31T22:49:48.216Z,1016.17
2019-03-31T22:50:48.255Z,1016.19
2019-03-31T22:51:48.198Z,1016.20
2019-03-31T22:52:48.175Z,1016.18
2019-03-31T22:53:48.185Z,1016.22
2019-03-31T22:54:48.308Z,1016.18
2019-03-31T22:55:57.504Z,1016.22
2019-03-31T22:56:48.134Z,1016.24
2019-03-31T22:57:48.174Z,1016.25
2019-03-31T22:58:48.109Z,1016.22
2019-03-31T22:59:48.098Z,1016.19
2019-03-31T23:00:48.111Z,1016.18
2019-03-31T23:01:48.075Z,1016.17
2019-03-31T23:02:48.068Z,1016.17
2019-03-31T23:03:48.053Z,1016.17
2019-03-31T23:04:48.054Z,1016.16
2019-03-31T23:05:57.412Z,1016.20
2019-03-31T23:06:48.025Z,1016.17
2019-03-31T23:07:48.011Z,1016.17
2019-03-31T23:08:48.021Z,1016.18
2019-03-31T23:09:47.986Z,1016.21
2019-03-31T23:10:48.062Z,1016.21
2019-03-31T23:11:47.964Z,1016.22
2019-03-31T23:12:48.015Z,1016.23
2019-03-31T23:13:47.972Z,1016.23
2019-03-31T23:14:47.947Z,1016.18
2019-03-31T23:15:47.963Z,1016.17
2019-03-31T23:16:57.253Z,1016.15
2019-03-31T23:17:47.910Z,1016.13
2019-03-31T23:18:47.890Z,1016.14
2019-03-31T23:19:47.881Z,1016.10
2019-03-31T23:20:47.899Z,1016.09
2019-03-31T23:21:47.868Z,1016.07
2019-03-31T23:22:47.874Z,1016.04
2019-03-31T23:23:47.834Z,1016.04
2019-03-31T23:24:47.825Z,1016.04
2019-03-31T23:25:47.858Z,1016.04
2019-03-31T23:26:57.166Z,1016.01
2019-03-31T23:27:47.793Z,1016.00
2019-03-31T23:28:47.778Z,1015.99
2019-03-31T23:29:47.766Z,1015.98
2019-03-31T23:30:47.779Z,1015.95
2019-03-31T23:31:47.782Z,1015.97
2019-03-31T23:32:47.739Z,1015.97
2019-03-31T23:33:47.727Z,1015.95
2019-03-31T23:34:47.716Z,1015.99
2019-03-31T23:35:47.792Z,1015.99
2019-03-31T23:36:47.702Z,1015.94
2019-03-31T23:37:47.679Z,1015.93
2019-03-31T23:38:47.674Z,1015.95
2019-03-31T23:39:47.656Z,1015.91
2019-03-31T23:40:47.686Z,1015.91
2019-03-31T23:41:47.651Z,1015.93
2019-03-31T23:42:56.930Z,1015.85
2019-03-31T23:43:47.612Z,1015.91
2019-03-31T23:44:47.600Z,1015.94
2019-03-31T23:45:47.611Z,1015.93
2019-03-31T23:46:47.586Z,1015.88
2019-03-31T23:47:47.567Z,1015.95
2019-03-31T23:48:47.558Z,1015.90
2019-03-31T23:49:47.545Z,1015.90
2019-03-31T23:50:47.555Z,1015.87
2019-03-31T23:51:47.526Z,1015.87
2019-03-31T23:52:47.516Z,1015.88
2019-03-31T23:53:47.503Z,1015.88
2019-03-31T23:54:47.507Z,1015.88
2019-03-31T23:55:47.504Z,1015.93
2019-03-31T23:56:55.931Z,1015.93
2019-03-31T23:57:47.461Z,1015.89
2019-03-31T23:58:47.448Z,1015.87
2019-03-31T23:59:47.435Z,1015.86
